createdAt,value
2023-01-13T00:01:29.239Z,89.38
2023-01-13T00:03:56.592Z,88.77
2023-01-13T00:06:26.081Z,88.53
2023-01-13T00:08:54.757Z,88.45
2023-01-13T00:11:21.722Z,87.99
2023-01-13T00:13:48.357Z,87.53
2023-01-13T00:16:19.870Z,87.69
2023-01-13T00:18:48.840Z,86.68
2023-01-13T00:21:18.184Z,85.51
2023-01-13T00:23:46.248Z,86.17
2023-01-13T00:26:19.238Z,85.24
2023-01-13T00:28:45.915Z,84.60
2023-01-13T00:31:15.354Z,85.15
2023-01-13T00:33:42.573Z,85.15
2023-01-13T00:36:28.989Z,84.52
2023-01-13T00:38:55.625Z,85.23
2023-01-13T00:44:07.904Z,85.43
2023-01-13T00:46:38.330Z,85.55
2023-01-13T00:51:50.282Z,86.39
2023-01-13T00:54:16.982Z,86.59
2023-01-13T00:56:43.575Z,86.59
2023-01-13T00:59:13.830Z,87.29
2023-01-13T01:01:41.236Z,87.25
2023-01-13T01:04:30.450Z,87.01
2023-01-13T01:06:59.304Z,87.51
2023-01-13T01:09:32.682Z,87.36
2023-01-13T01:12:02.336Z,87.49
2023-01-13T01:14:34.903Z,87.63
2023-01-13T01:17:01.648Z,87.55
2023-01-13T01:19:28.245Z,88.23
2023-01-13T01:21:55.130Z,88.09
2023-01-13T01:24:21.928Z,87.98
2023-01-13T01:26:48.549Z,88.48
2023-01-13T01:32:14.502Z,88.52
2023-01-13T01:34:41.283Z,88.39
2023-01-13T01:37:07.856Z,88.43
2023-01-13T01:39:34.473Z,88.36
2023-01-13T01:42:19.638Z,88.48
2023-01-13T01:44:55.186Z,88.57
2023-01-13T01:47:22.580Z,88.59
2023-01-13T01:49:50.081Z,88.73
2023-01-13T01:52:26.136Z,88.67
2023-01-13T01:55:01.658Z,88.89
2023-01-13T01:57:42.161Z,88.77
2023-01-13T02:00:12.795Z,88.68
2023-01-13T02:02:44.598Z,88.29
2023-01-13T02:05:14.289Z,88.54
2023-01-13T02:07:43.236Z,88.07
2023-01-13T02:10:16.106Z,88.04
2023-01-13T02:12:48.508Z,87.68
2023-01-13T02:15:31.369Z,87.58
2023-01-13T02:18:32.063Z,87.62
2023-01-13T02:21:38.004Z,87.31
2023-01-13T02:24:38.949Z,86.90
2023-01-13T02:30:57.343Z,86.59
2023-01-13T02:33:37.267Z,86.61
2023-01-13T02:36:10.998Z,86.23
2023-01-13T02:39:11.204Z,86.22
2023-01-13T02:42:15.484Z,85.78
2023-01-13T02:44:49.935Z,85.79
2023-01-13T02:47:22.282Z,85.53
2023-01-13T02:50:06.874Z,85.24
2023-01-13T02:52:38.352Z,85.36
2023-01-13T02:55:12.524Z,85.52
2023-01-13T03:06:16.323Z,85.05
2023-01-13T03:08:51.304Z,85.19
2023-01-13T03:11:20.231Z,84.51
2023-01-13T03:14:01.130Z,84.68
2023-01-13T03:17:10.922Z,84.60
2023-01-13T03:19:46.712Z,84.32
2023-01-13T03:22:32.877Z,83.98
2023-01-13T03:25:10.187Z,83.89
2023-01-13T03:30:56.045Z,83.88
2023-01-13T03:33:36.424Z,83.75
2023-01-13T03:36:14.138Z,84.26
2023-01-13T03:38:46.784Z,83.87
2023-01-13T03:41:25.557Z,84.04
2023-01-13T03:44:26.035Z,84.06
2023-01-13T03:47:18.182Z,84.13
2023-01-13T03:50:23.453Z,84.58
2023-01-13T03:52:56.798Z,84.58
2023-01-13T03:55:28.773Z,84.76
2023-01-13T04:00:53.625Z,84.92
2023-01-13T04:03:26.955Z,84.56
2023-01-13T04:06:01.148Z,84.57
2023-01-13T04:08:42.256Z,84.88
2023-01-13T04:11:21.612Z,84.73
2023-01-13T04:13:49.992Z,83.80
2023-01-13T04:16:16.593Z,83.84
2023-01-13T04:21:23.945Z,83.96
2023-01-13T04:23:51.918Z,83.92
2023-01-13T04:26:23.492Z,83.73
2023-01-13T04:28:51.876Z,83.85
2023-01-13T04:31:20.674Z,83.96
2023-01-13T04:33:47.439Z,83.87
2023-01-13T04:36:14.160Z,83.11
2023-01-13T04:38:40.690Z,82.99
2023-01-13T04:41:07.309Z,82.71
2023-01-13T04:43:34.020Z,82.47
2023-01-13T04:46:30.498Z,82.06
2023-01-13T04:48:54.854Z,81.86
2023-01-13T04:51:23.500Z,81.48
2023-01-13T04:53:52.346Z,81.73
2023-01-13T04:56:49.344Z,81.81
2023-01-13T05:02:19.810Z,81.71
2023-01-13T05:04:47.528Z,81.45
2023-01-13T05:07:15.730Z,81.83
2023-01-13T05:09:42.366Z,82.02
2023-01-13T05:13:02.155Z,81.71
2023-01-13T05:15:55.753Z,82.10
2023-01-13T05:21:34.668Z,81.73
2023-01-13T05:24:19.684Z,82.50
2023-01-13T05:27:15.174Z,82.49
2023-01-13T05:30:13.609Z,82.58
2023-01-13T05:32:48.956Z,82.20
2023-01-13T05:35:18.796Z,82.78
2023-01-13T05:41:23.161Z,82.97
2023-01-13T05:43:53.747Z,83.19
2023-01-13T05:47:01.662Z,83.64
2023-01-13T05:49:28.192Z,83.46
2023-01-13T05:51:54.786Z,83.55
2023-01-13T05:54:24.438Z,83.95
2023-01-13T05:56:51.226Z,83.76
2023-01-13T05:59:17.956Z,83.89
2023-01-13T06:01:44.439Z,83.85
2023-01-13T06:04:11.066Z,83.68
2023-01-13T06:06:37.723Z,83.80
2023-01-13T06:09:26.394Z,83.82
2023-01-13T06:12:17.535Z,83.81
2023-01-13T06:16:02.787Z,83.63
2023-01-13T06:39:20.339Z,83.35
2023-01-13T06:42:51.599Z,83.28
2023-01-13T06:45:18.792Z,82.41
2023-01-13T06:47:48.565Z,82.58
2023-01-13T06:50:18.672Z,82.46
2023-01-13T07:17:26.624Z,83.43
2023-01-13T07:29:56.737Z,82.75
2023-01-13T07:32:23.254Z,81.89
2023-01-13T07:34:49.830Z,82.23
2023-01-13T07:37:16.370Z,82.34
2023-01-13T07:39:45.200Z,82.23
2023-01-13T07:42:30.478Z,82.04
2023-01-13T07:44:56.974Z,81.75
2023-01-13T07:47:23.490Z,81.73
2023-01-13T07:49:49.991Z,81.50
2023-01-13T07:52:16.463Z,81.25
2023-01-13T07:54:42.971Z,80.96
2023-01-13T07:57:09.535Z,80.53
2023-01-13T07:59:36.102Z,79.70
2023-01-13T08:02:02.852Z,80.18
2023-01-13T08:04:29.455Z,79.71
2023-01-13T08:06:55.987Z,79.64
2023-01-13T08:09:22.595Z,80.34
2023-01-13T08:12:09.109Z,80.29
2023-01-13T08:14:35.674Z,79.52
2023-01-13T08:17:02.221Z,79.70
2023-01-13T08:19:31.165Z,78.91
2023-01-13T08:22:32.494Z,79.03
2023-01-13T08:25:35.733Z,78.69
2023-01-13T08:28:04.058Z,78.96
2023-01-13T08:30:56.351Z,79.44
2023-01-13T08:33:38.079Z,79.03
2023-01-13T09:13:20.914Z,83.90
2023-01-13T09:16:13.583Z,83.26
2023-01-13T09:25:30.926Z,84.05
2023-01-13T09:27:57.736Z,84.76
2023-01-13T09:30:24.873Z,85.03
2023-01-13T09:33:11.334Z,85.32
2023-01-13T09:35:37.875Z,84.89
2023-01-13T09:38:04.500Z,85.18
2023-01-13T09:40:30.991Z,85.29
2023-01-13T09:43:23.993Z,85.63
2023-01-13T09:45:59.859Z,85.39
2023-01-13T09:48:51.882Z,85.11
2023-01-13T09:51:45.749Z,84.89
2023-01-13T09:57:52.233Z,84.18
2023-01-13T10:00:31.763Z,83.42
2023-01-13T10:03:41.141Z,83.53
2023-01-13T10:13:13.945Z,84.06
2023-01-13T10:15:46.966Z,85.06
2023-01-13T10:25:32.642Z,85.88
2023-01-13T10:28:28.440Z,85.70
2023-01-13T10:30:58.728Z,85.37
2023-01-13T10:33:30.030Z,84.30
2023-01-13T10:37:50.026Z,84.51
2023-01-13T10:39:24.913Z,84.18
2023-01-13T10:42:02.904Z,84.52
2023-01-13T10:44:31.198Z,84.19
2023-01-13T10:47:03.208Z,83.62
2023-01-13T10:49:36.330Z,83.63
2023-01-13T10:52:04.671Z,83.76
2023-01-13T10:54:31.374Z,83.66
2023-01-13T10:57:21.681Z,84.25
2023-01-13T10:59:50.908Z,84.02
2023-01-13T11:02:34.426Z,83.47
2023-01-13T11:05:15.937Z,83.10
2023-01-13T11:07:50.573Z,82.84
2023-01-13T11:10:25.397Z,83.30
2023-01-13T11:13:10.210Z,83.21
2023-01-13T11:15:44.553Z,83.23
2023-01-13T11:18:19.473Z,83.28
2023-01-13T11:20:51.318Z,82.84
2023-01-13T11:23:25.407Z,82.54
2023-01-13T11:25:59.433Z,82.56
2023-01-13T11:28:44.213Z,80.89
2023-01-13T11:31:36.317Z,80.71
2023-01-13T11:34:31.117Z,80.22
2023-01-13T11:37:21.615Z,79.66
2023-01-13T11:39:58.690Z,79.69
2023-01-13T11:42:46.102Z,79.30
2023-01-13T11:45:25.026Z,78.73
2023-01-13T11:48:00.371Z,78.17
2023-01-13T11:54:59.493Z,78.55
2023-01-13T11:58:18.993Z,77.09
2023-01-13T12:01:04.284Z,77.13
2023-01-13T12:04:11.165Z,76.96
2023-01-13T12:13:40.222Z,76.82
2023-01-13T12:16:17.414Z,76.22
2023-01-13T12:19:12.084Z,76.64
2023-01-13T12:21:58.531Z,76.31
2023-01-13T12:24:47.628Z,76.35
2023-01-13T12:27:47.538Z,76.15
2023-01-13T12:30:27.716Z,75.96
2023-01-13T12:33:18.642Z,76.16
2023-01-13T12:36:01.337Z,76.34
2023-01-13T12:38:37.812Z,76.58
2023-01-13T12:41:10.834Z,75.73
2023-01-13T12:44:00.308Z,75.59
2023-01-13T12:46:26.882Z,75.01
2023-01-13T12:48:55.370Z,75.11
2023-01-13T12:51:25.651Z,74.76
2023-01-13T12:53:53.366Z,75.19
2023-01-13T12:56:27.591Z,75.28
2023-01-13T12:59:19.971Z,75.44
2023-01-13T13:01:49.344Z,74.61
2023-01-13T13:04:21.384Z,74.29
2023-01-13T13:07:04.998Z,73.44
2023-01-13T13:09:42.109Z,74.23
2023-01-13T13:13:09.057Z,73.87
2023-01-13T13:15:37.079Z,73.25
2023-01-13T13:18:17.135Z,73.67
2023-01-13T13:20:54.950Z,73.75
2023-01-13T13:23:29.373Z,73.38
2023-01-13T13:26:03.669Z,73.34
2023-01-13T13:28:39.063Z,73.31
2023-01-13T13:31:19.053Z,72.73
2023-01-13T13:33:58.445Z,72.93
2023-01-13T13:37:44.381Z,72.86
2023-01-13T13:43:17.989Z,72.66
2023-01-13T13:46:21.531Z,72.31
2023-01-13T13:49:44.607Z,72.35
2023-01-13T13:52:34.970Z,71.74
2023-01-13T13:55:13.922Z,71.89
2023-01-13T13:57:45.245Z,72.03
2023-01-13T14:00:15.181Z,72.83
2023-01-13T14:02:51.355Z,73.23
2023-01-13T14:05:23.044Z,72.31
2023-01-13T14:07:52.684Z,72.70
2023-01-13T14:10:24.751Z,72.91
2023-01-13T14:12:51.581Z,73.41
2023-01-13T14:15:33.319Z,73.76
2023-01-13T14:18:03.031Z,73.15
2023-01-13T14:20:30.290Z,73.65
2023-01-13T14:23:01.558Z,72.97
2023-01-13T14:25:29.468Z,73.12
2023-01-13T14:27:59.625Z,73.43
2023-01-13T14:30:27.712Z,73.59
2023-01-13T14:32:56.005Z,73.70
2023-01-13T14:35:22.583Z,73.98
2023-01-13T14:37:50.575Z,73.87
2023-01-13T14:40:46.493Z,74.00
2023-01-13T14:43:16.637Z,73.92
2023-01-13T14:45:55.417Z,74.12
2023-01-13T14:48:23.705Z,74.57
2023-01-13T14:50:50.417Z,74.77
2023-01-13T14:53:29.235Z,74.97
2023-01-13T14:55:55.835Z,75.47
2023-01-13T14:58:22.479Z,75.48
2023-01-13T15:00:50.990Z,75.50
2023-01-13T15:03:20.674Z,74.99
2023-01-13T15:05:50.259Z,74.78
2023-01-13T15:08:21.309Z,74.81
2023-01-13T15:10:52.934Z,74.48
2023-01-13T15:13:46.999Z,74.39
2023-01-13T15:16:26.596Z,74.58
2023-01-13T15:18:55.716Z,74.64
2023-01-13T15:21:24.634Z,74.43
2023-01-13T15:23:53.905Z,74.42
2023-01-13T15:26:25.341Z,74.46
2023-01-13T15:28:54.329Z,74.16
2023-01-13T15:31:21.553Z,74.09
2023-01-13T15:33:48.794Z,74.10
2023-01-13T15:36:27.862Z,73.49
2023-01-13T15:38:55.178Z,74.29
2023-01-13T15:41:42.059Z,74.28
2023-01-13T15:44:30.333Z,74.13
2023-01-13T15:46:57.910Z,74.68
2023-01-13T15:49:34.763Z,74.72
2023-01-13T15:52:22.093Z,74.47
2023-01-13T15:54:49.881Z,74.94
2023-01-13T15:57:22.183Z,75.23
2023-01-13T15:59:49.178Z,75.24
2023-01-13T16:02:18.294Z,75.25
2023-01-13T16:04:45.606Z,75.42
2023-01-13T16:07:16.004Z,75.11
2023-01-13T16:09:42.944Z,75.29
2023-01-13T16:12:09.578Z,75.34
2023-01-13T16:14:36.390Z,75.31
2023-01-13T16:17:10.722Z,75.63
2023-01-13T16:19:37.317Z,76.15
2023-01-13T16:22:04.261Z,76.43
2023-01-13T16:24:30.834Z,76.06
2023-01-13T16:26:57.432Z,76.38
2023-01-13T16:29:26.231Z,76.06
2023-01-13T16:31:55.039Z,76.93
2023-01-13T16:34:21.658Z,77.01
2023-01-13T16:36:48.595Z,77.71
2023-01-13T16:39:22.012Z,77.02
2023-01-13T16:41:49.213Z,76.94
2023-01-13T16:44:15.944Z,77.06
2023-01-13T16:46:46.492Z,77.44
2023-01-13T16:49:15.429Z,77.93
2023-01-13T16:51:42.133Z,78.50
2023-01-13T16:54:09.573Z,80.13
2023-01-13T16:56:36.936Z,81.01
2023-01-13T16:59:07.718Z,82.19
2023-01-13T17:01:37.478Z,83.42
2023-01-13T17:04:04.539Z,83.99
2023-01-13T17:06:31.055Z,84.23
2023-01-13T17:09:07.835Z,84.14
2023-01-13T17:11:34.696Z,84.53
2023-01-13T17:14:01.396Z,84.76
2023-01-13T17:16:45.897Z,84.78
2023-01-13T17:19:12.780Z,84.78
2023-01-13T17:21:40.458Z,84.60
2023-01-13T17:24:07.983Z,84.53
2023-01-13T17:26:39.140Z,84.91
2023-01-13T17:29:09.557Z,85.38
2023-01-13T17:31:36.581Z,85.21
2023-01-13T17:34:04.686Z,85.13
2023-01-13T17:36:31.751Z,85.03
2023-01-13T17:38:58.695Z,84.65
2023-01-13T17:41:26.570Z,84.79
2023-01-13T17:43:53.786Z,84.35
2023-01-13T17:46:22.874Z,84.53
2023-01-13T17:48:51.136Z,84.46
2023-01-13T17:51:18.531Z,84.58
2023-01-13T17:53:45.670Z,84.02
2023-01-13T17:56:15.573Z,84.43
2023-01-13T17:58:42.133Z,84.51
2023-01-13T18:01:12.838Z,84.79
2023-01-13T18:03:40.154Z,84.83
2023-01-13T18:06:09.467Z,85.11
2023-01-13T18:08:36.178Z,85.63
2023-01-13T18:11:03.038Z,85.77
2023-01-13T18:13:31.535Z,85.73
2023-01-13T18:16:01.980Z,85.83
2023-01-13T18:18:28.662Z,85.84
2023-01-13T18:21:13.993Z,86.04
2023-01-13T18:23:59.054Z,86.02
2023-01-13T18:26:45.398Z,86.13
2023-01-13T18:29:11.976Z,86.35
2023-01-13T18:31:38.719Z,86.56
2023-01-13T18:34:10.185Z,86.55
2023-01-13T18:36:38.275Z,86.62
2023-01-13T18:39:05.381Z,86.80
2023-01-13T18:41:50.562Z,86.98
2023-01-13T18:44:18.186Z,86.69
2023-01-13T18:46:44.936Z,86.86
2023-01-13T18:49:11.541Z,86.19
2023-01-13T18:51:42.612Z,86.00
2023-01-13T18:54:09.213Z,86.06
2023-01-13T18:56:35.880Z,85.63
2023-01-13T18:59:04.881Z,84.89
2023-01-13T19:01:31.611Z,84.93
2023-01-13T19:04:02.715Z,84.43
2023-01-13T19:06:33.938Z,84.51
2023-01-13T19:09:02.956Z,84.84
2023-01-13T19:11:30.572Z,84.70
2023-01-13T19:13:57.135Z,84.74
2023-01-13T19:16:23.777Z,84.91
2023-01-13T19:18:50.373Z,84.70
2023-01-13T19:21:16.964Z,84.84
2023-01-13T19:23:43.507Z,84.72
2023-01-13T19:26:12.348Z,85.11
2023-01-13T19:28:40.496Z,84.56
2023-01-13T19:31:09.644Z,84.85
2023-01-13T19:33:38.655Z,84.90
2023-01-13T19:36:06.571Z,84.60
2023-01-13T19:38:36.385Z,84.73
2023-01-13T19:41:10.804Z,84.78
2023-01-13T19:43:56.347Z,84.69
2023-01-13T19:46:26.045Z,84.43
2023-01-13T19:48:52.736Z,84.72
2023-01-13T19:51:23.735Z,84.89
2023-01-13T19:53:50.379Z,84.82
2023-01-13T19:56:17.971Z,84.69
2023-01-13T19:58:50.520Z,84.70
2023-01-13T20:01:17.256Z,84.69
2023-01-13T20:03:45.917Z,84.48
2023-01-13T20:06:14.032Z,84.47
2023-01-13T20:08:41.895Z,84.41
2023-01-13T20:11:23.009Z,84.16
2023-01-13T20:13:52.037Z,83.96
2023-01-13T20:16:18.757Z,84.12
2023-01-13T20:18:49.168Z,84.19
2023-01-13T20:21:15.804Z,84.48
2023-01-13T20:23:42.608Z,84.16
2023-01-13T20:26:09.245Z,84.11
2023-01-13T20:28:38.808Z,83.97
2023-01-13T20:31:08.240Z,83.93
2023-01-13T20:33:35.178Z,83.92
2023-01-13T20:36:02.239Z,83.72
2023-01-13T20:38:28.862Z,83.91
2023-01-13T20:40:59.905Z,83.60
2023-01-13T20:43:27.308Z,83.70
2023-01-13T20:45:54.313Z,83.89
2023-01-13T20:48:20.950Z,84.47
2023-01-13T20:50:53.374Z,84.42
2023-01-13T20:53:19.907Z,84.85
2023-01-13T20:55:47.554Z,84.54
2023-01-13T20:58:15.245Z,84.39
2023-01-13T21:00:44.018Z,84.18
2023-01-13T21:03:10.601Z,84.07
2023-01-13T21:05:37.197Z,83.84
2023-01-13T21:08:03.950Z,83.77
2023-01-13T21:10:30.719Z,83.49
2023-01-13T21:13:15.800Z,83.30
2023-01-13T21:15:48.173Z,83.31
2023-01-13T21:18:33.818Z,82.91
2023-01-13T21:21:13.227Z,83.05
2023-01-13T21:23:42.661Z,82.70
2023-01-13T21:26:10.705Z,82.73
2023-01-13T21:28:37.521Z,83.05
2023-01-13T21:31:07.093Z,82.67
2023-01-13T21:33:33.665Z,82.28
2023-01-13T21:36:06.937Z,82.24
2023-01-13T21:38:34.487Z,81.97
2023-01-13T21:41:05.812Z,82.19
2023-01-13T21:43:51.919Z,82.01
2023-01-13T21:46:37.241Z,81.83
2023-01-13T21:49:05.706Z,82.02
2023-01-13T21:51:33.650Z,81.82
2023-01-13T21:54:01.685Z,82.13
2023-01-13T21:56:28.311Z,82.02
2023-01-13T21:59:00.710Z,81.68
2023-01-13T22:01:27.344Z,81.55
2023-01-13T22:04:12.491Z,81.52
2023-01-13T22:06:39.182Z,81.71
2023-01-13T22:09:06.073Z,81.37
2023-01-13T22:11:32.692Z,81.33
2023-01-13T22:14:06.778Z,81.46
2023-01-13T22:16:39.057Z,80.96
2023-01-13T22:19:08.565Z,80.40
2023-01-13T22:21:35.940Z,80.86
2023-01-13T22:24:02.689Z,80.44
2023-01-13T22:26:29.287Z,80.20
2023-01-13T22:28:55.846Z,79.54
2023-01-13T22:31:23.966Z,79.87
2023-01-13T22:33:53.451Z,79.81
2023-01-13T22:36:20.888Z,80.22
2023-01-13T22:38:47.472Z,80.13
2023-01-13T22:41:14.118Z,80.23
2023-01-13T22:43:40.666Z,80.13
2023-01-13T22:46:10.133Z,80.04
2023-01-13T22:48:37.809Z,79.74
2023-01-13T22:51:07.505Z,80.01
2023-01-13T22:53:34.883Z,79.77
2023-01-13T22:56:02.077Z,79.27
2023-01-13T22:58:29.048Z,79.20
2023-01-13T23:00:56.097Z,79.15
2023-01-13T23:03:23.891Z,79.05
2023-01-13T23:05:57.034Z,78.96
2023-01-13T23:08:23.629Z,78.86
2023-01-13T23:10:50.555Z,78.73
2023-01-13T23:13:17.257Z,78.91
2023-01-13T23:15:43.815Z,78.94
2023-01-13T23:18:10.318Z,79.11
2023-01-13T23:20:36.867Z,78.70
2023-01-13T23:23:03.403Z,78.74
2023-01-13T23:25:30.053Z,78.66
2023-01-13T23:27:56.555Z,78.93
2023-01-13T23:30:23.067Z,78.93
2023-01-13T23:32:49.602Z,79.38
2023-01-13T23:35:16.140Z,78.73
2023-01-13T23:37:42.694Z,78.88
2023-01-13T23:40:10.177Z,78.43
2023-01-13T23:42:36.727Z,78.39
2023-01-13T23:45:03.646Z,78.84
2023-01-13T23:47:30.191Z,78.49
2023-01-13T23:49:56.739Z,78.58
2023-01-13T23:52:23.288Z,78.69
2023-01-13T23:54:49.834Z,78.25
2023-01-13T23:57:16.438Z,77.93
2023-01-13T23:59:43.148Z,78.11
